Time;durP1;ratioP1;P1;durP2;ratioP2;P2;SDS_P1;SDS_P2;PMS_P1;PMS_P2;Temp;Humidity;BMP_temperature;BMP_pressure;BME280_temperature;BME280_humidity;BME280_pressure;Samples;Min_cycle;Max_cycle;Signal;HPM_P1;HPM_P2
2022/07/15 00:02:13;;;;;;;2.83;2.45;;;30.60;32.70;;;;;;5068245;28;45330;-73
2022/07/15 00:04:41;;;;;;;3.17;2.30;;;30.60;32.80;;;;;;5068572;28;45352;-73
2022/07/15 00:07:08;;;;;;;2.72;2.20;;;30.60;32.90;;;;;;5067960;28;45527;-72
2022/07/15 00:12:19;;;;;;;2.63;2.25;;;30.50;32.80;;;;;;5065623;28;45192;-73
2022/07/15 00:14:46;;;;;;;3.55;2.35;;;30.50;32.80;;;;;;5068518;28;45301;-72
2022/07/15 00:17:13;;;;;;;4.28;2.42;;;30.40;32.70;;;;;;5067791;28;45312;-73
2022/07/15 00:19:41;;;;;;;2.50;2.20;;;30.40;32.80;;;;;;5067996;28;45325;-72
2022/07/15 00:22:08;;;;;;;3.17;2.50;;;30.40;32.90;;;;;;5067418;28;45391;-72
2022/07/15 00:24:34;;;;;;;2.75;2.13;;;30.40;32.90;;;;;;5068147;28;45282;-72
2022/07/15 00:27:02;;;;;;;2.70;2.22;;;30.30;32.90;;;;;;5067656;28;46692;-72
2022/07/15 00:29:29;;;;;;;2.78;2.33;;;30.30;32.90;;;;;;5067653;28;45458;-72
2022/07/15 00:31:56;;;;;;;1.98;1.83;;;30.30;32.90;;;;;;5068027;28;45403;-72
2022/07/15 00:34:23;;;;;;;2.33;2.13;;;30.30;32.90;;;;;;5067726;28;45317;-73
2022/07/15 00:36:51;;;;;;;2.97;2.20;;;30.30;33.00;;;;;;5064963;28;45329;-73
2022/07/15 00:39:17;;;;;;;2.45;2.25;;;30.20;32.90;;;;;;5067632;28;45298;-72
2022/07/15 00:41:44;;;;;;;2.75;2.55;;;30.20;33.00;;;;;;5067739;28;45294;-72
2022/07/15 00:44:11;;;;;;;2.40;2.20;;;30.20;33.00;;;;;;5067835;28;45244;-72
2022/07/15 00:46:39;;;;;;;2.53;2.03;;;30.10;33.00;;;;;;5067303;28;46870;-72
2022/07/15 00:49:07;;;;;;;3.05;2.15;;;30.10;33.00;;;;;;5067596;28;45212;-73
2022/07/15 00:51:35;;;;;;;3.50;2.03;;;30.10;33.00;;;;;;5067577;28;45346;-72
2022/07/15 00:54:04;;;;;;;3.03;2.45;;;30.10;33.10;;;;;;5067891;28;45437;-73
2022/07/15 00:56:31;;;;;;;2.55;2.00;;;30.00;33.00;;;;;;5067201;28;45238;-72
2022/07/15 00:58:57;;;;;;;2.95;1.98;;;30.00;33.10;;;;;;5067211;28;45442;-72
2022/07/15 01:01:24;;;;;;;2.35;2.15;;;30.00;33.10;;;;;;5067473;28;45268;-73
2022/07/15 01:03:51;;;;;;;2.92;2.10;;;30.00;33.20;;;;;;5067494;28;45532;-73
2022/07/15 01:06:18;;;;;;;2.47;2.00;;;29.90;33.10;;;;;;5067092;28;46471;-73
2022/07/15 01:08:45;;;;;;;2.40;2.25;;;29.90;33.10;;;;;;5066479;28;45362;-73
2022/07/15 01:11:14;;;;;;;3.95;2.13;;;29.90;33.20;;;;;;5066632;28;45257;-72
2022/07/15 01:13:40;;;;;;;2.42;2.22;;;29.80;33.10;;;;;;5067387;28;45240;-73
2022/07/15 01:16:07;;;;;;;2.28;2.08;;;29.80;33.20;;;;;;5066902;28;46329;-73
2022/07/15 01:18:34;;;;;;;1.80;1.70;;;29.80;33.20;;;;;;5066974;28;45136;-73
2022/07/15 01:21:02;;;;;;;2.20;2.00;;;29.80;33.20;;;;;;5067111;28;45297;-73
2022/07/15 01:23:29;;;;;;;3.70;2.33;;;29.70;33.20;;;;;;5067047;28;45445;-72
2022/07/15 01:25:56;;;;;;;2.47;2.03;;;29.70;33.30;;;;;;5066758;28;45741;-73
2022/07/15 01:28:23;;;;;;;2.05;1.80;;;29.70;33.30;;;;;;5066686;28;45154;-72
2022/07/15 01:30:50;;;;;;;2.15;1.95;;;29.70;33.40;;;;;;5067096;28;45255;-72
2022/07/15 01:33:17;;;;;;;2.72;2.20;;;29.70;33.30;;;;;;5066835;28;45240;-73
2022/07/15 01:35:43;;;;;;;2.25;2.00;;;29.70;33.40;;;;;;5066652;28;46365;-73
2022/07/15 01:38:12;;;;;;;2.30;2.10;;;29.60;33.30;;;;;;5066697;28;45248;-73
2022/07/15 01:40:39;;;;;;;2.53;2.17;;;29.60;33.40;;;;;;5066803;28;45317;-72
2022/07/15 01:43:06;;;;;;;2.38;2.10;;;29.60;33.40;;;;;;5067085;28;45251;-72
2022/07/15 01:45:32;;;;;;;2.30;2.10;;;29.50;33.40;;;;;;5066486;28;46648;-72
2022/07/15 01:47:59;;;;;;;2.17;2.00;;;29.50;33.40;;;;;;5066431;28;45372;-72
2022/07/15 01:50:25;;;;;;;2.40;1.75;;;29.50;33.50;;;;;;5066640;28;45255;-72
2022/07/15 01:52:52;;;;;;;1.95;1.80;;;29.40;33.40;;;;;;5066763;28;45507;-73
2022/07/15 01:55:20;;;;;;;2.95;2.10;;;29.40;33.50;;;;;;5066471;28;45222;-73
2022/07/15 01:57:47;;;;;;;2.40;2.20;;;29.40;33.60;;;;;;5066426;28;45204;-73
2022/07/15 02:00:16;;;;;;;2.00;1.80;;;29.40;33.60;;;;;;5066751;28;45410;-72
2022/07/15 02:02:43;;;;;;;2.00;1.88;;;29.30;33.50;;;;;;5066513;28;45429;-72
2022/07/15 02:05:10;;;;;;;2.35;1.75;;;29.30;33.60;;;;;;5066200;28;45213;-73
2022/07/15 02:07:38;;;;;;;2.72;2.10;;;29.30;33.60;;;;;;5066153;28;45225;-73
2022/07/15 02:10:05;;;;;;;2.00;1.80;;;29.30;33.60;;;;;;5066489;28;45235;-72
2022/07/15 02:12:34;;;;;;;2.50;1.95;;;29.30;33.70;;;;;;5066317;28;45395;-73
2022/07/15 02:15:00;;;;;;;2.33;2.03;;;29.20;33.60;;;;;;5065980;28;45177;-73
2022/07/15 02:17:27;;;;;;;1.90;1.67;;;29.20;33.70;;;;;;5065999;28;45273;-73
2022/07/15 02:19:54;;;;;;;2.20;2.00;;;29.20;33.70;;;;;;5066379;28;45345;-73
2022/07/15 02:22:21;;;;;;;2.13;1.92;;;29.10;33.70;;;;;;5065916;28;45293;-73
2022/07/15 02:24:48;;;;;;;3.17;2.10;;;29.10;33.80;;;;;;5065885;28;45619;-73
2022/07/15 02:27:14;;;;;;;1.92;1.83;;;29.10;33.80;;;;;;5065953;28;45388;-73
2022/07/15 02:29:43;;;;;;;2.10;1.90;;;29.10;33.80;;;;;;5065910;28;45306;-72
2022/07/15 02:32:09;;;;;;;2.17;1.98;;;29.00;33.80;;;;;;5066184;28;45474;-72
2022/07/15 02:34:36;;;;;;;2.17;1.90;;;29.00;33.90;;;;;;5065558;28;45415;-72
2022/07/15 02:37:03;;;;;;;2.00;1.80;;;28.90;33.80;;;;;;5065944;28;45303;-72
2022/07/15 02:39:30;;;;;;;1.83;1.73;;;28.90;33.80;;;;;;5065985;28;45244;-72
2022/07/15 02:41:57;;;;;;;2.08;1.88;;;28.90;33.90;;;;;;5066040;28;45252;-72
2022/07/15 02:44:24;;;;;;;2.75;1.85;;;28.90;33.90;;;;;;5065606;28;45254;-73
2022/07/15 02:46:52;;;;;;;3.10;2.10;;;28.80;33.80;;;;;;5065673;28;45307;-72
2022/07/15 02:49:19;;;;;;;2.20;2.00;;;28.80;34.00;;;;;;5066001;28;45288;-73
2022/07/15 02:51:46;;;;;;;2.63;1.80;;;28.80;33.90;;;;;;5065823;28;45399;-73
2022/07/15 02:54:13;;;;;;;2.60;1.77;;;28.80;33.90;;;;;;5065570;28;45441;-72
2022/07/15 02:56:40;;;;;;;2.13;1.85;;;28.80;34.00;;;;;;5065567;28;45323;-72
2022/07/15 02:59:06;;;;;;;3.50;1.88;;;28.70;34.00;;;;;;5065610;28;45245;-73
2022/07/15 03:01:33;;;;;;;2.50;2.10;;;28.70;34.00;;;;;;5065618;28;45244;-73
2022/07/15 03:04:01;;;;;;;2.00;1.70;;;28.70;34.10;;;;;;5065349;28;47323;-73
2022/07/15 03:06:28;;;;;;;1.83;1.70;;;28.70;34.10;;;;;;5065287;28;45247;-73
2022/07/15 03:08:55;;;;;;;2.33;1.90;;;28.60;34.00;;;;;;5065693;28;45319;-73
2022/07/15 03:11:22;;;;;;;1.80;1.70;;;28.60;34.10;;;;;;5065519;28;45396;-73
2022/07/15 03:13:48;;;;;;;2.00;1.90;;;28.60;34.10;;;;;;5065155;28;45457;-73
2022/07/15 03:16:15;;;;;;;2.10;1.88;;;28.60;34.10;;;;;;5065407;28;45250;-73
2022/07/15 03:18:42;;;;;;;1.83;1.73;;;28.60;34.00;;;;;;5065346;28;45200;-73
2022/07/15 03:21:10;;;;;;;2.40;2.20;;;28.60;34.00;;;;;;5065489;28;45380;-73
2022/07/15 03:23:37;;;;;;;1.92;1.45;;;28.50;34.00;;;;;;5065016;28;45861;-73
2022/07/15 03:26:04;;;;;;;2.30;1.90;;;28.50;34.10;;;;;;5065173;28;45276;-73
2022/07/15 03:28:31;;;;;;;1.90;1.80;;;28.50;34.00;;;;;;5065124;28;45188;-73
2022/07/15 03:30:58;;;;;;;1.80;1.70;;;28.50;34.10;;;;;;5065344;28;45175;-73
2022/07/15 03:33:24;;;;;;;2.17;1.98;;;28.50;34.10;;;;;;5066363;28;46721;-73
2022/07/15 03:35:51;;;;;;;2.03;1.80;;;28.40;34.10;;;;;;5068532;28;45379;-72
2022/07/15 03:38:19;;;;;;;2.17;1.90;;;28.40;34.10;;;;;;5068788;28;45303;-72
2022/07/15 03:40:46;;;;;;;1.77;1.50;;;28.40;34.10;;;;;;5068888;28;45494;-72
2022/07/15 03:43:13;;;;;;;2.10;1.90;;;28.40;34.20;;;;;;5068418;28;46643;-72
2022/07/15 03:45:40;;;;;;;1.85;1.73;;;28.40;34.30;;;;;;5068502;28;45231;-73
2022/07/15 03:48:07;;;;;;;2.95;1.83;;;28.40;34.30;;;;;;5068566;28;45356;-72
2022/07/15 03:50:35;;;;;;;2.40;1.77;;;28.30;34.90;;;;;;5068803;28;45346;-72
2022/07/15 03:53:01;;;;;;;1.95;1.85;;;28.30;34.20;;;;;;5068267;28;45230;-72
2022/07/15 03:55:30;;;;;;;2.35;1.85;;;28.30;34.30;;;;;;5068264;28;45191;-72
2022/07/15 03:57:57;;;;;;;1.70;1.60;;;28.30;34.30;;;;;;5068471;28;45291;-72
2022/07/15 04:00:24;;;;;;;3.58;2.00;;;28.30;34.30;;;;;;5068456;28;45426;-73
2022/07/15 04:02:51;;;;;;;2.42;1.98;;;28.20;34.20;;;;;;5068017;28;46415;-72
2022/07/15 04:05:17;;;;;;;1.90;1.70;;;28.20;34.30;;;;;;5068114;28;45169;-72
2022/07/15 04:07:44;;;;;;;2.00;1.80;;;28.20;34.30;;;;;;5068509;28;45305;-73
2022/07/15 04:10:11;;;;;;;2.45;1.70;;;28.20;34.30;;;;;;5068975;28;45411;-72
2022/07/15 04:12:39;;;;;;;1.90;1.80;;;28.20;34.30;;;;;;5068456;28;47321;-73
2022/07/15 04:15:06;;;;;;;1.90;1.80;;;28.10;34.30;;;;;;5068350;28;45319;-73
2022/07/15 04:17:33;;;;;;;2.05;1.70;;;28.10;34.30;;;;;;5068497;28;45276;-73
2022/07/15 04:20:00;;;;;;;2.05;1.55;;;28.10;34.30;;;;;;5068915;28;45214;-73
2022/07/15 04:22:27;;;;;;;1.70;1.60;;;28.10;34.40;;;;;;5067858;28;46387;-73
2022/07/15 04:24:54;;;;;;;2.20;1.77;;;28.00;34.30;;;;;;5068669;28;45377;-73
2022/07/15 04:27:21;;;;;;;1.80;1.70;;;28.00;34.40;;;;;;5068289;28;45189;-74
2022/07/15 04:29:49;;;;;;;1.70;1.60;;;28.00;34.40;;;;;;5069187;28;45236;-73
2022/07/15 04:32:16;;;;;;;2.00;1.80;;;27.90;34.40;;;;;;5068576;28;46387;-73
2022/07/15 04:34:43;;;;;;;1.63;1.45;;;27.90;34.50;;;;;;5068305;28;45256;-73
2022/07/15 04:37:10;;;;;;;1.70;1.60;;;27.90;34.50;;;;;;5068787;28;45311;-73
2022/07/15 04:39:36;;;;;;;1.85;1.70;;;27.90;34.50;;;;;;5069116;28;45249;-73
2022/07/15 04:42:04;;;;;;;2.65;1.58;;;27.90;34.60;;;;;;5068800;28;46367;-74
2022/07/15 04:44:30;;;;;;;1.73;1.63;;;27.80;34.60;;;;;;5068649;28;45275;-73
2022/07/15 04:46:58;;;;;;;2.03;1.60;;;27.80;34.60;;;;;;5068909;28;45244;-73
2022/07/15 04:52:24;;;;;;;3.05;1.80;;;27.80;34.60;;;;;;5031699;28;45957;-73
2022/07/15 04:54:51;;;;;;;1.70;1.60;;;27.80;34.70;;;;;;5068409;28;45185;-74
2022/07/15 04:57:17;;;;;;;2.00;1.40;;;27.70;34.60;;;;;;5068663;28;45319;-73
2022/07/15 04:59:44;;;;;;;2.40;1.63;;;27.70;34.60;;;;;;5069033;28;45233;-74
2022/07/15 05:02:12;;;;;;;1.98;1.80;;;27.70;34.70;;;;;;5068236;28;46407;-73
2022/07/15 05:04:39;;;;;;;1.67;1.58;;;27.70;34.70;;;;;;5068501;28;45197;-73
2022/07/15 05:07:07;;;;;;;2.45;1.90;;;27.70;34.80;;;;;;5068448;28;45300;-73
2022/07/15 05:09:33;;;;;;;1.95;1.67;;;27.60;34.70;;;;;;5068581;28;45327;-73
2022/07/15 05:12:00;;;;;;;2.00;1.40;;;27.60;34.70;;;;;;5068163;28;45612;-73
2022/07/15 05:14:27;;;;;;;2.35;1.90;;;27.60;35.40;;;;;;5068168;28;45207;-73
2022/07/15 05:16:54;;;;;;;1.80;1.70;;;27.60;34.80;;;;;;5067243;28;45188;-73
2022/07/15 05:19:23;;;;;;;1.65;1.55;;;27.60;34.90;;;;;;5067357;28;45253;-73
2022/07/15 05:21:50;;;;;;;1.70;1.60;;;27.60;34.90;;;;;;5066995;28;45301;-73
2022/07/15 05:24:18;;;;;;;2.22;1.83;;;27.50;34.80;;;;;;5066913;28;45182;-73
2022/07/15 05:26:45;;;;;;;1.58;1.48;;;27.50;34.90;;;;;;5067045;28;45283;-73
2022/07/15 05:29:12;;;;;;;1.85;1.52;;;27.60;34.90;;;;;;5066910;28;45495;-73
2022/07/15 05:31:39;;;;;;;2.10;1.90;;;27.50;34.90;;;;;;5066647;28;45354;-73
2022/07/15 05:34:06;;;;;;;2.55;1.42;;;27.50;34.80;;;;;;5066483;28;45292;-73
2022/07/15 05:36:34;;;;;;;1.60;1.50;;;27.50;34.90;;;;;;5066803;28;45351;-73
2022/07/15 05:39:01;;;;;;;2.13;1.67;;;27.50;34.90;;;;;;5067191;28;45127;-74
2022/07/15 05:41:28;;;;;;;2.25;1.75;;;27.50;35.00;;;;;;5066547;28;46389;-74
2022/07/15 05:43:55;;;;;;;1.65;1.55;;;27.50;35.00;;;;;;5066492;28;45302;-73
2022/07/15 05:46:22;;;;;;;2.13;1.58;;;27.50;35.00;;;;;;5066829;28;45312;-73
2022/07/15 05:48:48;;;;;;;1.67;1.58;;;27.50;35.00;;;;;;5066681;28;45395;-73
2022/07/15 05:51:15;;;;;;;2.83;1.58;;;27.50;35.00;;;;;;5066314;28;45328;-73
2022/07/15 05:53:43;;;;;;;1.67;1.52;;;27.40;34.90;;;;;;5066347;28;45320;-74
2022/07/15 05:56:10;;;;;;;2.15;1.73;;;27.40;35.00;;;;;;5066094;28;45407;-73
2022/07/15 05:58:37;;;;;;;2.20;1.70;;;27.40;35.00;;;;;;5066599;28;45426;-73
2022/07/15 06:01:05;;;;;;;2.33;1.90;;;27.40;35.00;;;;;;5066166;28;46411;-73
2022/07/15 06:03:32;;;;;;;2.47;1.98;;;27.40;35.00;;;;;;5067167;28;45181;-73
2022/07/15 06:05:59;;;;;;;2.72;1.88;;;27.40;35.00;;;;;;5067521;28;45311;-74
2022/07/15 06:08:26;;;;;;;3.17;1.85;;;27.40;35.00;;;;;;5066676;28;45389;-73
2022/07/15 06:10:54;;;;;;;1.95;1.77;;;27.40;35.10;;;;;;5066078;28;46290;-73
2022/07/15 06:13:22;;;;;;;1.42;1.40;;;27.40;35.00;;;;;;5067201;28;45198;-73
2022/07/15 06:15:48;;;;;;;2.88;1.75;;;27.40;35.60;;;;;;5066069;28;45255;-73
2022/07/15 06:18:15;;;;;;;1.98;1.70;;;27.40;35.00;;;;;;5067688;28;45334;-73
2022/07/15 06:20:42;;;;;;;1.98;1.77;;;27.40;35.00;;;;;;5067224;28;46681;-73
2022/07/15 06:23:09;;;;;;;2.65;1.73;;;27.40;35.00;;;;;;5067084;28;45201;-73
2022/07/15 06:25:36;;;;;;;1.48;1.38;;;27.40;35.00;;;;;;5067080;28;45336;-73
2022/07/15 06:28:04;;;;;;;1.80;1.50;;;27.40;35.00;;;;;;5067274;28;45334;-73
2022/07/15 06:30:31;;;;;;;2.13;1.63;;;27.50;35.10;;;;;;5065719;28;47451;-73
2022/07/15 06:32:59;;;;;;;1.63;1.50;;;27.50;35.00;;;;;;5066994;28;45266;-74
2022/07/15 06:35:25;;;;;;;1.85;1.60;;;27.50;35.10;;;;;;5067051;28;45299;-73
2022/07/15 06:37:52;;;;;;;1.92;1.73;;;27.40;35.00;;;;;;5067386;28;45449;-73
2022/07/15 06:40:19;;;;;;;1.98;1.60;;;27.40;35.10;;;;;;5066710;28;45291;-73
2022/07/15 06:42:46;;;;;;;2.38;1.60;;;27.40;35.10;;;;;;5066944;28;45347;-74
2022/07/15 06:45:14;;;;;;;1.73;1.58;;;27.40;35.10;;;;;;5066848;28;45273;-73
2022/07/15 06:47:42;;;;;;;1.63;1.50;;;27.40;35.10;;;;;;5067449;28;44766;-73
2022/07/15 06:50:09;;;;;;;1.88;1.50;;;27.40;35.10;;;;;;5066606;28;46700;-73
2022/07/15 06:52:36;;;;;;;1.77;1.67;;;27.40;35.10;;;;;;5066668;28;45459;-73
2022/07/15 06:55:03;;;;;;;1.90;1.67;;;27.50;35.20;;;;;;5066407;28;45162;-73
2022/07/15 06:57:30;;;;;;;1.85;1.75;;;27.40;35.10;;;;;;5066427;28;45478;-73
2022/07/15 06:59:57;;;;;;;3.53;1.90;;;27.50;35.20;;;;;;5065582;28;46495;-73
2022/07/15 07:02:25;;;;;;;2.90;1.65;;;27.50;35.20;;;;;;5065334;28;45446;-73
2022/07/15 07:04:52;;;;;;;1.70;1.50;;;27.50;35.20;;;;;;5065398;28;45330;-73
2022/07/15 07:07:19;;;;;;;2.97;1.60;;;27.50;35.20;;;;;;5064495;28;45228;-73
2022/07/15 07:09:46;;;;;;;2.50;1.90;;;27.50;35.20;;;;;;5065277;28;45481;-73
2022/07/15 07:12:13;;;;;;;1.80;1.70;;;27.50;35.20;;;;;;5065233;28;45386;-73
2022/07/15 07:14:39;;;;;;;2.88;1.83;;;27.50;35.20;;;;;;5065375;28;45297;-74
2022/07/15 07:17:07;;;;;;;3.50;1.65;;;27.50;35.20;;;;;;5065682;28;45218;-73
2022/07/15 07:19:35;;;;;;;3.05;1.67;;;27.50;35.20;;;;;;5065348;28;45626;-73
2022/07/15 07:22:04;;;;;;;1.80;1.70;;;27.50;35.20;;;;;;5065212;28;45299;-72
2022/07/15 07:24:30;;;;;;;1.50;1.40;;;27.50;35.20;;;;;;5065549;28;45306;-73
2022/07/15 07:26:57;;;;;;;2.00;1.80;;;27.50;35.20;;;;;;5065470;28;45543;-73
2022/07/15 07:29:25;;;;;;;2.40;1.90;;;27.50;35.20;;;;;;5065103;28;45280;-73
2022/07/15 07:31:52;;;;;;;2.13;1.75;;;27.60;35.30;;;;;;5065454;28;45209;-73
2022/07/15 07:34:19;;;;;;;2.47;1.60;;;27.60;35.30;;;;;;5064889;28;45378;-73
2022/07/15 07:36:48;;;;;;;2.20;1.67;;;27.60;35.30;;;;;;5065185;28;45370;-73
2022/07/15 07:39:15;;;;;;;2.33;1.88;;;27.60;35.30;;;;;;5064796;28;46519;-73
2022/07/15 07:41:42;;;;;;;1.88;1.77;;;27.60;35.30;;;;;;5064927;28;45226;-72
2022/07/15 07:44:09;;;;;;;1.75;1.48;;;27.60;35.30;;;;;;5065000;28;45283;-73
2022/07/15 07:46:35;;;;;;;2.72;1.70;;;27.60;35.40;;;;;;5065278;28;45245;-72
2022/07/15 07:49:02;;;;;;;2.28;1.63;;;27.60;35.40;;;;;;5064586;28;46387;-73
2022/07/15 07:51:29;;;;;;;1.70;1.60;;;27.70;35.40;;;;;;5064847;28;45232;-73
2022/07/15 07:53:58;;;;;;;2.80;1.60;;;27.70;35.40;;;;;;5064825;28;45180;-72
2022/07/15 07:56:24;;;;;;;1.50;1.40;;;27.70;35.40;;;;;;5064894;28;45549;-73
2022/07/15 07:58:51;;;;;;;1.77;1.60;;;27.70;35.30;;;;;;5061900;28;45271;-72
2022/07/15 08:01:18;;;;;;;3.22;1.70;;;27.80;35.40;;;;;;5064453;28;45249;-72
2022/07/15 08:03:45;;;;;;;4.07;2.08;;;27.80;35.30;;;;;;5064721;28;45267;-71
2022/07/15 08:06:12;;;;;;;2.40;1.90;;;27.80;35.40;;;;;;5066569;28;45476;-71
2022/07/15 08:08:39;;;;;;;4.47;2.10;;;27.70;35.60;;;;;;5064660;28;45490;-72
2022/07/15 08:11:07;;;;;;;6.43;2.40;;;27.60;35.70;;;;;;5064606;28;45240;-72
2022/07/15 08:13:34;;;;;;;5.43;2.22;;;27.60;35.70;;;;;;5063068;28;45330;-71
2022/07/15 08:16:01;;;;;;;3.72;2.15;;;27.50;36.00;;;;;;5064879;28;45249;-72
2022/07/15 08:18:28;;;;;;;2.97;2.00;;;27.50;36.40;;;;;;5064545;28;46406;-71
2022/07/15 08:20:55;;;;;;;4.40;2.20;;;27.40;35.90;;;;;;5067950;28;45400;-72
2022/07/15 08:23:22;;;;;;;5.28;1.92;;;27.40;35.40;;;;;;5068215;28;45278;-71
2022/07/15 08:25:49;;;;;;;4.40;2.30;;;27.40;35.60;;;;;;5068443;28;45387;-73
2022/07/15 08:28:17;;;;;;;3.25;1.90;;;27.40;35.40;;;;;;5067717;28;45554;-72
2022/07/15 08:30:44;;;;;;;4.70;2.00;;;27.30;35.80;;;;;;5048727;28;45340;-72
2022/07/15 08:33:11;;;;;;;2.97;2.20;;;27.30;35.90;;;;;;5048578;28;45297;-71
2022/07/15 08:35:40;;;;;;;5.85;2.22;;;27.20;35.90;;;;;;5048956;28;45412;-71
2022/07/15 08:38:07;;;;;;;5.47;1.90;;;27.20;35.80;;;;;;5048273;28;45230;-71
2022/07/15 08:40:34;;;;;;;3.28;2.00;;;27.20;35.80;;;;;;5047307;28;45299;-71
2022/07/15 08:43:01;;;;;;;4.78;2.20;;;27.20;36.00;;;;;;5047451;28;45243;-72
2022/07/15 08:45:30;;;;;;;3.53;2.33;;;27.20;36.20;;;;;;5048650;28;45229;-71
2022/07/15 08:47:56;;;;;;;4.15;2.20;;;27.20;36.20;;;;;;5047188;28;46744;-71
2022/07/15 08:50:24;;;;;;;2.65;2.08;;;27.20;35.90;;;;;;5047177;28;45452;-71
2022/07/15 08:52:51;;;;;;;3.10;2.08;;;27.20;36.00;;;;;;5047584;28;45272;-71
2022/07/15 08:55:18;;;;;;;2.45;1.85;;;27.20;35.90;;;;;;5047471;28;45189;-70
2022/07/15 08:57:46;;;;;;;4.03;2.00;;;27.20;36.00;;;;;;5047277;28;47578;-70
2022/07/15 09:00:14;;;;;;;3.70;2.03;;;27.20;36.20;;;;;;5047294;28;45326;-70
2022/07/15 09:02:42;;;;;;;3.78;2.30;;;27.20;36.00;;;;;;5062933;28;45406;-70
2022/07/15 09:05:26;;;;;;;5.00;2.00;;;27.20;35.70;;;;;;5067881;28;45342;-70
2022/07/15 09:07:55;;;;;;;3.83;2.03;;;27.20;35.70;;;;;;5067163;28;46666;-71
2022/07/15 09:10:22;;;;;;;2.42;1.90;;;27.30;35.60;;;;;;5067104;28;45178;-70
2022/07/15 09:12:50;;;;;;;3.30;2.00;;;27.30;35.60;;;;;;5067550;28;45301;-70
2022/07/15 09:15:30;;;;;;;3.05;2.30;;;27.20;35.50;;;;;;5067746;28;45467;-70
2022/07/15 09:18:06;;;;;;;4.03;2.10;;;27.30;35.90;;;;;;5067594;28;45218;-71
2022/07/15 09:20:33;;;;;;;3.03;1.90;;;27.20;35.80;;;;;;5067745;28;45238;-70
2022/07/15 09:23:00;;;;;;;3.78;2.35;;;27.30;36.50;;;;;;5067475;28;45331;-70
2022/07/15 09:25:28;;;;;;;2.85;1.92;;;27.30;35.90;;;;;;5067279;28;45272;-71
2022/07/15 09:27:57;;;;;;;3.33;2.35;;;27.30;35.90;;;;;;5066930;28;47912;-71
2022/07/15 09:36:03;;;;;;;4.57;2.03;;;27.30;35.90;;;;;;5065158;28;45248;-71
2022/07/15 09:38:32;;;;;;;5.03;2.15;;;27.40;36.00;;;;;;5067148;28;46405;-71
2022/07/15 09:40:59;;;;;;;3.67;2.63;;;27.30;36.10;;;;;;5067335;28;45387;-71
2022/07/15 09:43:26;;;;;;;4.68;2.55;;;27.30;36.20;;;;;;5067500;28;45208;-71
2022/07/15 09:45:58;;;;;;;2.40;2.10;;;27.40;36.30;;;;;;5067276;28;45324;-70
2022/07/15 09:48:28;;;;;;;3.58;2.15;;;27.50;36.20;;;;;;5067577;28;45399;-72
2022/07/15 09:50:59;;;;;;;3.80;1.90;;;27.40;36.00;;;;;;5067436;28;45487;-72
2022/07/15 09:53:26;;;;;;;3.95;1.90;;;27.50;36.20;;;;;;5067273;28;45277;-72
2022/07/15 09:55:53;;;;;;;7.63;2.20;;;27.50;36.00;;;;;;5069393;28;45472;-72
2022/07/15 09:58:20;;;;;;;3.42;2.15;;;27.50;35.80;;;;;;5067207;28;45321;-72
2022/07/15 10:00:47;;;;;;;3.55;2.13;;;27.60;35.50;;;;;;5066609;28;45256;-71
2022/07/15 10:03:15;;;;;;;5.20;2.25;;;27.50;35.50;;;;;;5067306;28;45319;-72
2022/07/15 10:05:43;;;;;;;3.58;2.25;;;27.50;35.30;;;;;;5067090;28;45589;-71
2022/07/15 10:08:10;;;;;;;3.35;2.00;;;27.50;35.30;;;;;;5066907;28;45468;-72
2022/07/15 10:10:39;;;;;;;3.22;1.98;;;27.50;35.60;;;;;;5066963;28;45450;-71
2022/07/15 10:13:13;;;;;;;3.78;2.05;;;27.60;35.70;;;;;;5066876;28;45299;-71
2022/07/15 10:15:43;;;;;;;2.15;1.90;;;27.60;35.60;;;;;;5066946;28;45292;-72
2022/07/15 10:18:17;;;;;;;3.90;1.90;;;27.60;35.30;;;;;;5066738;28;45287;-70
2022/07/15 10:21:03;;;;;;;3.65;1.70;;;27.70;35.50;;;;;;5066921;28;45372;-71
2022/07/15 10:23:42;;;;;;;3.65;2.00;;;27.70;35.40;;;;;;5066508;28;45371;-70
2022/07/15 10:26:19;;;;;;;3.63;2.13;;;27.70;35.20;;;;;;5066612;28;45293;-71
2022/07/15 10:28:50;;;;;;;3.60;1.95;;;27.70;35.00;;;;;;5066701;28;45287;-71
2022/07/15 10:31:20;;;;;;;4.07;2.10;;;27.70;35.00;;;;;;5066828;28;45509;-71
2022/07/15 10:34:17;;;;;;;7.05;2.28;;;27.70;34.80;;;;;;5067277;28;45500;-71
2022/07/15 10:36:59;;;;;;;2.67;1.88;;;27.80;34.90;;;;;;5046842;28;44629;-71
2022/07/15 10:39:27;;;;;;;5.40;1.90;;;27.90;34.70;;;;;;5054777;28;47287;-71
2022/07/15 10:41:56;;;;;;;5.97;2.38;;;28.00;34.70;;;;;;5068554;28;45198;-71
2022/07/15 10:44:23;;;;;;;3.97;2.10;;;28.00;34.30;;;;;;5066460;28;45350;-71
2022/07/15 10:47:25;;;;;;;3.95;1.98;;;28.00;34.40;;;;;;5067019;28;45322;-70
2022/07/15 10:49:52;;;;;;;5.80;1.70;;;28.00;34.30;;;;;;5003963;28;46223;-71
2022/07/15 10:52:21;;;;;;;3.22;2.00;;;28.00;34.50;;;;;;5002884;28;45448;-72
2022/07/15 10:54:49;;;;;;;3.13;2.00;;;28.10;34.60;;;;;;5030596;28;45465;-70
2022/07/15 10:57:19;;;;;;;5.25;2.03;;;28.10;34.60;;;;;;5065158;28;45459;-70
2022/07/15 10:59:51;;;;;;;3.10;2.10;;;28.20;34.90;;;;;;5065569;28;46408;-71
2022/07/15 11:02:20;;;;;;;4.30;2.30;;;28.10;34.10;;;;;;5062703;28;45495;-71
2022/07/15 11:04:46;;;;;;;4.05;2.30;;;28.20;34.10;;;;;;5070021;28;45255;-72
2022/07/15 11:07:28;;;;;;;6.20;2.10;;;28.20;34.10;;;;;;5066858;28;45408;-71
2022/07/15 11:09:55;;;;;;;2.92;2.20;;;28.30;34.10;;;;;;5065059;28;45614;-71
2022/07/15 11:12:23;;;;;;;2.92;2.13;;;28.30;34.00;;;;;;5066494;28;45170;-70
2022/07/15 11:14:52;;;;;;;2.13;1.88;;;28.30;33.90;;;;;;5065679;28;45327;-70
2022/07/15 11:17:22;;;;;;;3.72;2.03;;;28.30;33.90;;;;;;5067270;28;45402;-70
2022/07/15 11:19:50;;;;;;;6.32;2.40;;;28.30;33.80;;;;;;5070554;28;46695;-70
2022/07/15 11:22:18;;;;;;;4.35;1.83;;;28.30;33.60;;;;;;5064203;28;45233;-70
2022/07/15 11:24:46;;;;;;;3.53;2.17;;;28.50;33.60;;;;;;5065489;28;45405;-70
2022/07/15 11:27:13;;;;;;;3.38;1.92;;;28.50;33.00;;;;;;5078369;27;45439;-71
2022/07/15 11:29:44;;;;;;;2.83;1.90;;;28.50;32.90;;;;;;5067851;28;46606;-70
2022/07/15 11:32:11;;;;;;;4.43;2.20;;;28.60;32.70;;;;;;5065452;28;45189;-69
2022/07/15 11:34:41;;;;;;;3.47;2.15;;;28.70;32.90;;;;;;5065412;28;45315;-71
2022/07/15 11:37:09;;;;;;;2.58;1.98;;;28.70;32.20;;;;;;5065599;28;45263;-70
2022/07/15 11:39:36;;;;;;;2.55;2.30;;;28.60;32.00;;;;;;5065043;28;45613;-70
2022/07/15 11:44:49;;;;;;;2.55;1.70;;;28.70;32.40;;;;;;5065055;28;45187;-70
2022/07/15 11:47:16;;;;;;;2.72;2.13;;;28.90;31.90;;;;;;5066733;28;45248;-71
2022/07/15 11:49:43;;;;;;;4.95;2.47;;;29.00;31.60;;;;;;5075511;28;45512;-70
2022/07/15 11:52:11;;;;;;;3.63;2.08;;;29.00;31.50;;;;;;5073531;27;45595;-70
2022/07/15 11:54:38;;;;;;;3.47;2.17;;;29.00;31.60;;;;;;5047120;28;45209;-70
2022/07/15 11:57:07;;;;;;;3.35;2.15;;;29.10;31.50;;;;;;5048980;28;45458;-70
2022/07/15 11:59:34;;;;;;;2.70;2.30;;;29.30;31.60;;;;;;5048370;28;45240;-69
2022/07/15 12:02:01;;;;;;;5.40;2.13;;;29.30;31.00;;;;;;5058434;28;45462;-70
2022/07/15 12:04:28;;;;;;;3.83;2.50;;;29.30;31.00;;;;;;5068720;28;45216;-70
2022/07/15 12:06:55;;;;;;;4.78;2.10;;;29.50;31.10;;;;;;5072690;28;45585;-70
2022/07/15 12:09:22;;;;;;;2.70;2.33;;;29.60;30.90;;;;;;5074915;27;45420;-70
2022/07/15 12:11:49;;;;;;;2.53;2.05;;;29.60;30.60;;;;;;5068319;28;45256;-70
2022/07/15 12:14:20;;;;;;;2.60;2.38;;;29.70;30.90;;;;;;5068053;28;45379;-70
2022/07/15 12:16:48;;;;;;;3.30;2.15;;;29.70;30.50;;;;;;5068058;28;45391;-70
2022/07/15 12:19:17;;;;;;;2.30;2.10;;;29.70;30.30;;;;;;5067961;28;46428;-70
2022/07/15 12:21:44;;;;;;;3.45;2.20;;;29.70;30.50;;;;;;5068567;28;45220;-70
2022/07/15 12:24:12;;;;;;;2.33;1.77;;;29.90;30.30;;;;;;5067875;28;45303;-71
2022/07/15 12:26:41;;;;;;;2.45;2.20;;;30.00;29.80;;;;;;5069044;28;45382;-71
2022/07/15 12:29:09;;;;;;;2.78;2.08;;;30.10;29.80;;;;;;5068080;28;45576;-70
2022/07/15 12:31:39;;;;;;;2.88;2.00;;;30.20;29.90;;;;;;5067676;28;45516;-70
2022/07/15 12:34:06;;;;;;;2.10;1.95;;;30.30;29.80;;;;;;5067538;28;45307;-70
2022/07/15 12:36:34;;;;;;;3.10;1.88;;;30.30;29.80;;;;;;5067050;28;45258;-70
2022/07/15 12:39:19;;;;;;;4.75;2.08;;;30.40;29.50;;;;;;5067818;28;45708;-69
2022/07/15 12:41:46;;;;;;;2.38;2.13;;;30.50;29.60;;;;;;5068077;28;45490;-71
2022/07/15 12:44:13;;;;;;;7.07;2.08;;;30.50;29.60;;;;;;5067126;28;45609;-71
2022/07/15 12:46:52;;;;;;;3.38;2.20;;;30.50;29.50;;;;;;5067405;28;45376;-70
2022/07/15 12:49:38;;;;;;;2.95;1.80;;;30.60;29.50;;;;;;5064231;28;46647;-70
2022/07/15 12:52:26;;;;;;;5.00;2.60;;;30.60;29.60;;;;;;5063076;28;45358;-70
2022/07/15 12:54:54;;;;;;;4.10;1.90;;;30.60;29.20;;;;;;5067559;28;45327;-70
2022/07/15 12:57:29;;;;;;;2.97;1.70;;;30.60;29.10;;;;;;5067206;28;45483;-71
2022/07/15 12:59:56;;;;;;;4.05;2.17;;;30.70;29.00;;;;;;5064856;28;45527;-71
2022/07/15 13:02:25;;;;;;;5.00;2.25;;;30.80;29.00;;;;;;5065942;28;45327;-70
2022/07/15 13:04:52;;;;;;;3.53;2.00;;;30.80;29.10;;;;;;5066425;28;45434;-70
2022/07/15 13:07:19;;;;;;;3.08;2.03;;;30.80;29.10;;;;;;5064584;28;45477;-70